createdAt,value
2019-02-24T00:02:38.357Z,18.53
2019-02-24T00:05:46.679Z,20.83
2019-02-24T00:10:49.044Z,18.60
2019-02-24T00:13:17.476Z,13.83
2019-02-24T00:15:46.208Z,15.60
2019-02-24T00:18:33.773Z,20.10
2019-02-24T00:21:21.498Z,11.87
2019-02-24T00:23:49.916Z,10.27
2019-02-24T00:26:18.344Z,16.03
2019-02-24T00:28:46.798Z,11.53
2019-02-24T00:31:15.316Z,13.47
2019-02-24T00:33:43.747Z,13.40
2019-02-24T00:36:12.191Z,16.60
2019-02-24T00:38:40.621Z,14.50
2019-02-24T00:41:09.143Z,15.23
2019-02-24T00:43:37.602Z,16.57
2019-02-24T00:49:14.116Z,14.93
2019-02-24T00:51:42.879Z,13.73
2019-02-24T00:54:11.304Z,14.77
2019-02-24T00:56:39.757Z,10.97
2019-02-24T00:59:08.189Z,12.73
2019-02-24T01:01:36.611Z,12.03
2019-02-24T01:04:24.392Z,15.63
2019-02-24T01:06:52.906Z,13.73
2019-02-24T01:09:21.331Z,11.87
2019-02-24T01:11:49.888Z,14.67
2019-02-24T01:14:18.317Z,10.27
2019-02-24T01:17:26.780Z,18.23
2019-02-24T01:19:55.208Z,17.23
2019-02-24T01:22:23.640Z,15.93
2019-02-24T01:25:11.217Z,11.97
2019-02-24T01:27:39.648Z,11.53
2019-02-24T01:30:48.023Z,19.60
2019-02-24T01:33:16.453Z,15.90
2019-02-24T01:35:44.954Z,18.40
2019-02-24T01:41:07.380Z,14.73
2019-02-24T01:43:35.847Z,13.37
2019-02-24T01:49:12.393Z,18.50
2019-02-24T01:51:40.920Z,12.00
2019-02-24T01:54:09.622Z,15.57
2019-02-24T01:56:38.096Z,16.83
2019-02-24T01:59:06.530Z,18.90
2019-02-24T02:01:35.269Z,16.67
2019-02-24T02:04:03.732Z,16.10
2019-02-24T02:09:40.349Z,14.30
2019-02-24T02:12:08.781Z,11.43
2019-02-24T02:14:37.515Z,13.90
2019-02-24T02:19:39.791Z,14.60
2019-02-24T02:22:08.263Z,16.70
2019-02-24T02:24:36.824Z,15.90
2019-02-24T02:27:05.571Z,13.00
2019-02-24T02:29:34.030Z,15.47
2019-02-24T02:32:02.550Z,13.50
2019-02-24T02:34:31.071Z,13.30
2019-02-24T02:37:18.729Z,13.07
2019-02-24T02:39:47.162Z,12.60
2019-02-24T02:42:34.829Z,15.30
2019-02-24T02:50:45.056Z,14.93
2019-02-24T02:53:13.595Z,23.10
2019-02-24T02:55:42.154Z,21.70
2019-02-24T02:58:10.581Z,15.33
2019-02-24T03:00:58.365Z,19.70
2019-02-24T03:03:27.216Z,15.80
2019-02-24T03:06:15.118Z,10.63
2019-02-24T03:09:02.670Z,12.97
2019-02-24T03:11:31.135Z,13.93
2019-02-24T03:13:59.948Z,13.90
2019-02-24T03:19:17.786Z,15.83
2019-02-24T03:21:46.225Z,19.73
2019-02-24T03:24:14.656Z,14.80
2019-02-24T03:26:43.225Z,15.87
2019-02-24T03:29:11.665Z,21.00
2019-02-24T03:31:40.455Z,14.53
2019-02-24T03:34:09.206Z,16.40
2019-02-24T03:36:37.616Z,18.23
2019-02-24T03:39:46.308Z,19.77
2019-02-24T03:42:14.743Z,13.13
2019-02-24T03:44:43.170Z,17.20
2019-02-24T03:47:30.995Z,15.10
2019-02-24T03:49:59.769Z,17.30
2019-02-24T03:52:28.200Z,13.93
2019-02-24T03:57:49.542Z,16.30
2019-02-24T04:00:18.272Z,15.13
2019-02-24T04:02:46.696Z,14.80
2019-02-24T04:05:15.225Z,15.13
2019-02-24T04:07:43.704Z,18.93
2019-02-24T04:10:31.315Z,14.93
2019-02-24T04:15:33.434Z,9.27
2019-02-24T04:18:01.957Z,15.07
2019-02-24T04:20:30.505Z,12.93
2019-02-24T04:22:58.933Z,12.40
2019-02-24T04:25:27.361Z,11.20
2019-02-24T04:27:55.821Z,29.30
2019-02-24T04:30:43.570Z,15.40
2019-02-24T04:33:12.031Z,12.00
2019-02-24T04:35:40.460Z,11.03
2019-02-24T04:38:09.213Z,13.40
2019-02-24T04:40:37.674Z,13.77
2019-02-24T04:43:25.444Z,12.80
2019-02-24T04:45:53.974Z,9.13
2019-02-24T04:48:22.399Z,10.10
2019-02-24T04:50:50.823Z,9.00
2019-02-24T04:53:19.281Z,12.50
2019-02-24T04:55:47.708Z,15.57
2019-02-24T04:58:16.141Z,10.03
2019-02-24T05:00:44.599Z,14.00
2019-02-24T05:03:13.120Z,13.80
2019-02-24T05:08:29.100Z,13.97
2019-02-24T05:10:57.533Z,14.30
2019-02-24T05:13:25.971Z,15.13
2019-02-24T05:15:54.440Z,10.40
2019-02-24T05:18:22.864Z,15.43
2019-02-24T05:20:51.294Z,10.60
2019-02-24T05:23:19.759Z,12.73
2019-02-24T05:25:48.195Z,13.13
2019-02-24T05:28:35.980Z,10.33
2019-02-24T05:31:04.414Z,11.50
2019-02-24T05:33:32.840Z,11.87
2019-02-24T05:36:01.305Z,10.63
2019-02-24T05:38:49.063Z,11.97
2019-02-24T05:41:36.813Z,17.97
2019-02-24T05:44:05.239Z,13.97
2019-02-24T05:46:33.668Z,17.90
2019-02-24T05:49:02.137Z,11.80
2019-02-24T05:51:30.564Z,10.07
2019-02-24T05:53:58.992Z,10.67
2019-02-24T05:56:27.458Z,12.00
2019-02-24T05:58:55.884Z,17.73
2019-02-24T06:01:24.314Z,12.03
2019-02-24T06:03:52.799Z,8.30
2019-02-24T06:06:40.417Z,9.50
2019-02-24T06:09:08.988Z,16.40
2019-02-24T06:11:37.499Z,14.13
2019-02-24T06:14:05.950Z,12.40
2019-02-24T06:19:09.088Z,10.77
2019-02-24T06:21:37.549Z,13.97
2019-02-24T06:24:06.065Z,11.43
2019-02-24T06:26:34.520Z,14.73
2019-02-24T06:29:03.013Z,13.30
2019-02-24T06:31:31.431Z,11.30
2019-02-24T06:33:59.865Z,14.87
2019-02-24T06:36:28.592Z,8.97
2019-02-24T06:38:57.025Z,15.33
2019-02-24T06:41:25.480Z,19.43
2019-02-24T06:44:13.270Z,8.87
2019-02-24T06:46:42.646Z,16.30
2019-02-24T06:49:11.481Z,15.43
2019-02-24T06:54:14.342Z,10.03
2019-02-24T06:56:42.797Z,12.07
2019-02-24T06:59:11.227Z,16.10
2019-02-24T07:01:39.656Z,12.80
2019-02-24T07:04:27.474Z,14.37
2019-02-24T07:06:55.909Z,16.37
2019-02-24T07:09:24.345Z,12.43
2019-02-24T07:11:52.888Z,14.03
2019-02-24T07:14:21.341Z,11.67
2019-02-24T07:16:49.866Z,16.33
2019-02-24T07:19:18.320Z,13.10
2019-02-24T07:21:47.100Z,13.67
2019-02-24T07:24:15.645Z,15.53
2019-02-24T07:29:18.080Z,13.37
2019-02-24T07:31:46.869Z,12.87
2019-02-24T07:34:15.316Z,14.50
2019-02-24T07:36:43.730Z,19.70
2019-02-24T07:39:12.298Z,17.47
2019-02-24T07:41:40.729Z,16.27
2019-02-24T07:44:09.169Z,19.07
2019-02-24T07:46:37.630Z,20.10
2019-02-24T07:49:06.067Z,21.93
2019-02-24T07:51:34.605Z,12.67
2019-02-24T07:54:03.060Z,18.10
2019-02-24T07:56:31.492Z,13.97
2019-02-24T07:58:59.929Z,14.10
2019-02-24T08:01:28.391Z,14.67
2019-02-24T08:03:56.816Z,21.53
2019-02-24T08:06:25.599Z,11.80
2019-02-24T08:08:54.054Z,13.13
2019-02-24T08:11:22.482Z,11.90
2019-02-24T08:13:51.006Z,16.13
2019-02-24T08:16:19.476Z,17.80
2019-02-24T08:18:49.975Z,14.97
2019-02-24T08:21:18.072Z,13.10
2019-02-24T08:23:46.519Z,9.07
2019-02-24T08:26:34.196Z,11.37
2019-02-24T08:29:02.643Z,11.17
2019-02-24T08:31:31.076Z,15.10
2019-02-24T08:33:59.504Z,12.03
2019-02-24T08:36:28.571Z,13.57
2019-02-24T08:38:57.004Z,13.43
2019-02-24T08:41:25.442Z,12.70
2019-02-24T08:43:54.247Z,16.33
2019-02-24T08:46:22.671Z,9.67
2019-02-24T08:48:51.391Z,10.20
2019-02-24T08:51:19.837Z,11.13
2019-02-24T08:53:48.255Z,9.83
2019-02-24T08:56:16.681Z,8.67
2019-02-24T08:58:45.132Z,10.47
2019-02-24T09:01:13.915Z,11.97
2019-02-24T09:03:42.450Z,17.27
2019-02-24T09:06:11.320Z,22.83
2019-02-24T09:08:40.154Z,10.17
2019-02-24T09:11:08.666Z,9.60
2019-02-24T09:13:37.120Z,10.60
2019-02-24T09:16:05.650Z,8.97
2019-02-24T09:18:34.419Z,8.63
2019-02-24T09:21:02.889Z,7.70
2019-02-24T09:23:31.310Z,6.83
2019-02-24T09:26:00.162Z,9.33
2019-02-24T09:28:28.611Z,7.43
2019-02-24T09:31:00.805Z,6.07
2019-02-24T09:33:27.526Z,5.77
2019-02-24T09:35:55.980Z,6.40
2019-02-24T09:38:24.693Z,5.03
2019-02-24T09:40:53.118Z,6.80
2019-02-24T09:43:21.574Z,6.53
2019-02-24T09:45:50.088Z,6.33
2019-02-24T09:48:18.510Z,6.00
2019-02-24T09:50:46.954Z,5.93
2019-02-24T09:53:15.376Z,6.00
2019-02-24T09:55:43.814Z,5.50
2019-02-24T09:58:12.406Z,5.70
2019-02-24T10:00:40.836Z,4.80
2019-02-24T10:03:09.257Z,5.20
2019-02-24T10:05:39.000Z,11.77
2019-02-24T10:08:08.215Z,5.40
2019-02-24T10:10:36.722Z,5.70
2019-02-24T10:13:05.241Z,6.23
2019-02-24T10:15:33.663Z,3.80
2019-02-24T10:18:02.090Z,3.80
2019-02-24T10:20:30.551Z,3.57
2019-02-24T10:22:59.302Z,8.87
2019-02-24T10:25:28.096Z,4.30
2019-02-24T10:27:56.878Z,4.33
2019-02-24T10:30:25.376Z,5.77
2019-02-24T10:32:53.798Z,3.60
2019-02-24T10:35:22.634Z,9.33
2019-02-24T10:37:51.072Z,4.10
2019-02-24T10:40:19.573Z,3.80
2019-02-24T10:42:48.382Z,4.00
2019-02-24T10:45:19.007Z,3.53
2019-02-24T10:47:47.425Z,3.90
2019-02-24T10:50:16.911Z,4.50
2019-02-24T10:52:45.686Z,3.93
2019-02-24T10:55:14.194Z,3.17
2019-02-24T10:57:42.841Z,4.97
2019-02-24T11:00:13.894Z,3.30
2019-02-24T11:02:42.318Z,4.23
2019-02-24T11:05:11.226Z,3.73
2019-02-24T11:07:39.767Z,3.37
2019-02-24T11:10:09.538Z,6.73
2019-02-24T11:12:38.057Z,2.40
2019-02-24T11:15:09.258Z,3.10
2019-02-24T11:17:38.178Z,3.50
2019-02-24T11:20:17.650Z,2.60
2019-02-24T11:22:46.138Z,2.90
2019-02-24T11:25:14.635Z,2.47
2019-02-24T11:27:43.170Z,3.07
2019-02-24T11:30:13.327Z,6.90
2019-02-24T11:32:41.886Z,2.70
2019-02-24T11:35:11.717Z,3.03
2019-02-24T11:37:40.146Z,2.40
2019-02-24T11:40:14.192Z,3.03
2019-02-24T11:42:42.643Z,2.60
2019-02-24T11:45:11.134Z,3.43
2019-02-24T11:47:39.560Z,3.07
2019-02-24T11:50:10.702Z,1.97
2019-02-24T11:52:39.194Z,3.10
2019-02-24T11:55:09.448Z,2.83
2019-02-24T11:57:37.989Z,2.53
2019-02-24T12:00:10.848Z,2.47
2019-02-24T12:02:39.270Z,2.50
2019-02-24T12:05:08.877Z,3.23
2019-02-24T12:07:37.317Z,1.87
2019-02-24T12:10:08.901Z,3.50
2019-02-24T12:12:37.463Z,4.20
2019-02-24T12:15:09.295Z,2.30
2019-02-24T12:17:38.933Z,2.57
2019-02-24T12:20:10.679Z,3.63
2019-02-24T12:22:39.556Z,3.00
2019-02-24T12:25:10.091Z,2.67
2019-02-24T12:27:38.794Z,2.60
2019-02-24T12:30:12.376Z,3.10
2019-02-24T12:32:40.815Z,3.03
2019-02-24T12:35:09.993Z,2.43
2019-02-24T12:37:38.454Z,2.73
2019-02-24T12:40:09.711Z,6.03
2019-02-24T12:42:38.195Z,7.83
2019-02-24T12:45:08.859Z,2.80
2019-02-24T12:47:37.379Z,3.07
2019-02-24T12:50:10.816Z,2.70
2019-02-24T12:52:39.413Z,3.00
2019-02-24T12:55:09.397Z,2.77
2019-02-24T12:57:38.002Z,3.40
2019-02-24T13:00:13.877Z,3.10
2019-02-24T13:02:42.433Z,2.93
2019-02-24T13:05:10.962Z,2.83
2019-02-24T13:07:39.462Z,3.20
2019-02-24T13:10:11.312Z,3.33
2019-02-24T13:12:39.831Z,3.50
2019-02-24T13:15:08.320Z,4.20
2019-02-24T13:17:37.219Z,3.43
2019-02-24T13:20:10.058Z,4.47
2019-02-24T13:22:38.780Z,3.43
2019-02-24T13:25:10.147Z,3.83
2019-02-24T13:27:38.568Z,3.40
2019-02-24T13:30:10.000Z,3.20
2019-02-24T13:32:38.534Z,3.10
2019-02-24T13:35:18.409Z,2.80
2019-02-24T13:37:50.842Z,3.33
2019-02-24T13:40:19.582Z,3.20
2019-02-24T13:42:51.495Z,3.00
2019-02-24T13:45:23.256Z,3.60
2019-02-24T13:47:52.016Z,2.83
2019-02-24T13:50:20.584Z,2.60
2019-02-24T13:52:49.135Z,3.90
2019-02-24T13:55:17.975Z,5.53
2019-02-24T13:57:46.404Z,4.30
2019-02-24T14:00:19.557Z,3.40
2019-02-24T14:02:48.449Z,3.80
2019-02-24T14:05:17.227Z,2.93
2019-02-24T14:07:45.743Z,2.53
2019-02-24T14:10:15.025Z,3.13
2019-02-24T14:12:43.532Z,3.23
2019-02-24T14:15:13.452Z,2.60
2019-02-24T14:17:41.858Z,2.80
2019-02-24T14:20:17.556Z,7.07
2019-02-24T14:22:46.135Z,3.60
2019-02-24T14:25:15.614Z,6.63
2019-02-24T14:27:44.467Z,3.30
2019-02-24T14:30:19.220Z,3.07
2019-02-24T14:32:47.716Z,2.87
2019-02-24T14:35:24.060Z,2.60
2019-02-24T14:37:52.482Z,2.63
2019-02-24T14:40:21.075Z,3.90
2019-02-24T14:42:49.859Z,5.70
2019-02-24T14:45:20.026Z,2.57
2019-02-24T14:47:48.554Z,2.50
2019-02-24T14:50:17.036Z,2.60
2019-02-24T14:52:45.452Z,4.80
2019-02-24T14:55:15.015Z,3.13
2019-02-24T14:57:43.799Z,3.10
2019-02-24T15:00:15.062Z,3.63
2019-02-24T15:02:43.494Z,3.13
2019-02-24T15:05:13.762Z,3.50
2019-02-24T15:07:42.263Z,2.73
2019-02-24T15:10:21.923Z,2.77
2019-02-24T15:12:50.351Z,4.33
2019-02-24T15:15:21.929Z,3.00
2019-02-24T15:17:50.759Z,2.90
2019-02-24T15:20:20.327Z,2.80
2019-02-24T15:22:48.923Z,3.13
2019-02-24T15:25:18.444Z,2.90
2019-02-24T15:27:46.871Z,3.40
2019-02-24T15:30:31.015Z,3.50
2019-02-24T15:32:59.439Z,5.67
2019-02-24T15:35:27.938Z,4.00
2019-02-24T15:37:56.573Z,2.37
2019-02-24T15:40:25.356Z,2.10
2019-02-24T15:42:53.852Z,5.97
2019-02-24T15:45:22.733Z,5.10
2019-02-24T15:47:51.152Z,2.87
2019-02-24T15:50:19.667Z,3.07
2019-02-24T15:52:48.212Z,3.07
2019-02-24T15:55:17.886Z,3.23
2019-02-24T15:57:46.482Z,3.33
2019-02-24T16:00:20.299Z,3.70
2019-02-24T16:02:48.724Z,3.53
2019-02-24T16:05:17.324Z,3.00
2019-02-24T16:07:45.965Z,3.40
2019-02-24T16:10:19.419Z,3.20
2019-02-24T16:12:47.935Z,4.07
2019-02-24T16:15:19.612Z,3.53
2019-02-24T16:17:48.034Z,4.90
2019-02-24T16:20:33.382Z,6.27
2019-02-24T16:23:01.911Z,3.10
2019-02-24T16:25:30.684Z,4.37
2019-02-24T16:27:59.137Z,4.67
2019-02-24T16:30:28.072Z,4.13
2019-02-24T16:32:56.603Z,3.70
2019-02-24T16:35:25.126Z,4.50
2019-02-24T16:37:53.571Z,5.27
2019-02-24T16:40:26.191Z,4.23
2019-02-24T16:42:54.712Z,5.00
2019-02-24T16:45:23.412Z,3.40
2019-02-24T16:47:52.081Z,4.50
2019-02-24T16:50:24.772Z,4.20
2019-02-24T16:52:53.343Z,3.20
2019-02-24T16:55:21.834Z,4.87
2019-02-24T16:57:50.302Z,5.53
2019-02-24T17:00:24.948Z,3.67
2019-02-24T17:02:53.438Z,4.23
2019-02-24T17:05:22.498Z,3.77
2019-02-24T17:07:51.246Z,4.03
2019-02-24T17:10:21.212Z,4.00
2019-02-24T17:12:49.666Z,4.03
2019-02-24T17:15:18.090Z,6.57
2019-02-24T17:17:46.510Z,5.00
2019-02-24T17:20:20.034Z,14.80
2019-02-24T17:22:48.460Z,5.07
2019-02-24T17:25:17.374Z,4.00
2019-02-24T17:27:46.471Z,4.70
2019-02-24T17:30:16.231Z,3.77
2019-02-24T17:32:44.807Z,5.33
2019-02-24T17:35:14.116Z,6.77
2019-02-24T17:37:42.861Z,3.80
2019-02-24T17:40:19.947Z,7.70
2019-02-24T17:42:48.365Z,5.50
2019-02-24T17:45:17.149Z,4.67
2019-02-24T17:47:45.795Z,6.30
2019-02-24T17:50:17.754Z,5.30
2019-02-24T17:52:46.185Z,4.30
2019-02-24T17:55:16.148Z,5.23
2019-02-24T17:57:44.570Z,4.97
2019-02-24T18:00:20.531Z,3.40
2019-02-24T18:02:49.071Z,5.27
2019-02-24T18:05:17.883Z,4.43
2019-02-24T18:07:46.650Z,5.00
2019-02-24T18:10:15.553Z,4.87
2019-02-24T18:12:44.436Z,4.97
2019-02-24T18:15:13.955Z,6.47
2019-02-24T18:17:43.295Z,3.20
2019-02-24T18:20:17.253Z,7.70
2019-02-24T18:22:46.558Z,9.53
2019-02-24T18:25:15.169Z,5.10
2019-02-24T18:27:43.936Z,7.23
2019-02-24T18:30:15.901Z,5.30
2019-02-24T18:32:45.368Z,6.00
2019-02-24T18:35:14.215Z,7.90
2019-02-24T18:37:42.825Z,6.70
2019-02-24T18:40:13.945Z,18.00
2019-02-24T18:42:43.557Z,25.57
2019-02-24T18:45:14.066Z,22.90
2019-02-24T18:47:42.805Z,18.13
2019-02-24T18:50:15.651Z,12.97
2019-02-24T18:52:44.224Z,22.77
2019-02-24T18:55:14.001Z,26.87
2019-02-24T18:57:42.933Z,31.50
2019-02-24T19:00:19.914Z,25.00
2019-02-24T19:02:48.511Z,22.13
2019-02-24T19:05:17.510Z,26.40
2019-02-24T19:07:46.209Z,31.93
2019-02-24T19:10:17.075Z,24.63
2019-02-24T19:12:46.005Z,24.53
2019-02-24T19:15:17.142Z,28.30
2019-02-24T19:17:45.776Z,28.33
2019-02-24T19:20:17.059Z,10.93
2019-02-24T19:22:46.020Z,13.83
2019-02-24T19:25:15.056Z,12.57
2019-02-24T19:27:43.953Z,16.80
2019-02-24T19:30:22.459Z,14.63
2019-02-24T19:32:53.770Z,11.17
2019-02-24T19:35:24.569Z,13.77
2019-02-24T19:37:53.232Z,16.60
2019-02-24T19:40:23.890Z,17.10
2019-02-24T19:42:52.488Z,25.50
2019-02-24T19:45:27.239Z,11.20
2019-02-24T19:47:55.806Z,12.80
2019-02-24T19:50:26.063Z,10.23
2019-02-24T19:52:55.543Z,18.23
2019-02-24T19:55:24.223Z,13.17
2019-02-24T19:57:52.824Z,9.37
2019-02-24T20:00:24.072Z,11.30
2019-02-24T20:02:54.244Z,14.20
2019-02-24T20:05:23.312Z,11.63
2019-02-24T20:07:52.349Z,10.20
2019-02-24T20:10:30.077Z,10.40
2019-02-24T20:12:58.760Z,14.60
2019-02-24T20:15:27.297Z,10.87
2019-02-24T20:17:55.902Z,11.33
2019-02-24T20:20:24.556Z,7.83
2019-02-24T20:22:53.387Z,10.70
2019-02-24T20:25:24.865Z,6.60
2019-02-24T20:27:53.546Z,5.20
2019-02-24T20:31:02.188Z,6.63
2019-02-24T20:33:51.343Z,4.40
2019-02-24T20:36:39.558Z,6.13
2019-02-24T20:45:16.712Z,4.87
2019-02-24T20:48:04.481Z,5.23
2019-02-24T20:51:13.314Z,7.90
2019-02-24T20:54:01.153Z,5.47
2019-02-24T20:56:29.653Z,6.20
2019-02-24T20:58:58.109Z,5.70
2019-02-24T21:01:26.925Z,6.87
2019-02-24T21:04:14.725Z,5.80
2019-02-24T21:06:43.180Z,13.47
2019-02-24T21:12:05.398Z,12.27
2019-02-24T21:14:33.855Z,12.20
2019-02-24T21:17:02.649Z,17.80
2019-02-24T21:19:31.460Z,14.00
2019-02-24T21:22:00.233Z,15.90
2019-02-24T21:24:28.737Z,13.30
2019-02-24T21:26:57.166Z,15.20
2019-02-24T21:29:25.882Z,14.53
2019-02-24T21:32:13.708Z,16.70
2019-02-24T21:34:42.132Z,17.30
2019-02-24T21:37:10.568Z,16.20
2019-02-24T21:42:13.572Z,13.23
2019-02-24T21:44:42.360Z,12.50
2019-02-24T21:47:10.813Z,11.90
2019-02-24T21:49:39.335Z,11.43
2019-02-24T21:54:41.684Z,13.90
2019-02-24T21:57:29.391Z,13.90
2019-02-24T21:59:57.826Z,10.63
2019-02-24T22:02:26.341Z,15.23
2019-02-24T22:07:28.748Z,20.10
2019-02-24T22:09:57.200Z,10.63
2019-02-24T22:12:25.629Z,17.47
2019-02-24T22:14:54.948Z,18.47
2019-02-24T22:17:23.505Z,15.47
2019-02-24T22:19:51.937Z,21.43
2019-02-24T22:22:20.709Z,29.20
2019-02-24T22:24:49.167Z,35.00
2019-02-24T22:27:17.600Z,26.73
2019-02-24T22:29:46.360Z,29.93
2019-02-24T22:34:49.229Z,21.07
2019-02-24T22:37:17.696Z,26.60
2019-02-24T22:39:46.127Z,21.90
2019-02-24T22:42:14.556Z,19.33
2019-02-24T22:47:16.729Z,18.53
2019-02-24T22:49:45.472Z,14.07
2019-02-24T22:52:33.318Z,14.57
2019-02-24T22:55:01.776Z,9.10
2019-02-24T22:57:30.201Z,13.50
2019-02-24T23:00:56.371Z,11.20
2019-02-24T23:04:04.707Z,14.10
2019-02-24T23:06:33.166Z,13.07
2019-02-24T23:09:01.587Z,14.50
2019-02-24T23:11:49.231Z,10.83
2019-02-24T23:14:17.996Z,14.33
2019-02-24T23:16:46.483Z,14.00
2019-02-24T23:19:14.940Z,10.57
2019-02-24T23:21:43.378Z,13.10
2019-02-24T23:24:11.797Z,10.83
2019-02-24T23:29:15.027Z,12.30
2019-02-24T23:31:43.479Z,12.27
2019-02-24T23:34:11.907Z,12.10
2019-02-24T23:36:59.712Z,8.20
2019-02-24T23:39:28.130Z,15.83
2019-02-24T23:41:56.562Z,14.97
2019-02-24T23:44:44.209Z,12.33
2019-02-24T23:47:12.636Z,10.40
2019-02-24T23:50:00.615Z,11.83
2019-02-24T23:52:48.673Z,10.63
2019-02-24T23:55:17.151Z,9.47
2019-02-24T23:57:45.659Z,9.10
